LiveATC.Net - Listen to live air traffic control over the Internet!


ICAO: MMAN  IATA: ADN   Airport: Aeropuerto Internacional del Norte
City: Monterrey
Country: Mexico   Continent: North America
MMAN METAR Weather: MMAN 251140Z 12002KT 5SM OVC030 24/20 A2997 RMK SLP/// 5//// 9// 8/5// HZY BINOVC
MMAN Flight Activity (FlightAware)
MMAN Tower
Feed Status: DOWN
Last heard on: 2016-06-05 08:55:03 (50 days 3 hours 6 minutes ago)
MMAN Tower Audio Archives
FacilityFrequency
Monterrey Tower118.600


NOTICE

Unauthorized use prohibited. See LiveATC.net Terms of Service


Find LiveATC Audio Streams


Airport/ARTCC Code

Frequency
(e.g., 124.400, 128.75)
Site-wide search

Browse LiveATC Feeds
LiveATC Coverage Map
Top 50 LiveATC Feeds
Bad Weather Areas

LiveATC FAQ
Offer a LiveATC Feed
Contact LiveATC.net
Press Inquiries

LiveATC on iPhone
LiveATC on Android

Windows Phone
Windows 8/10

LiveATC Mobile
(Mobile browser)

ATC Audio Archives
Interesting Recordings

LiveATC Forums


Home Page
About LiveATC.net
Make a Donation
LiveATC Store

Terms of Use
Privacy Policy

Canadian Air Freqs

AIRMETs/SIGMETs

FAA Airport Status
Nat'l Airspace Status
Arrival Demand Charts


Server Software By:
Icecast.org
Liquidsoap